Time;durP1;ratioP1;P1;durP2;ratioP2;P2;SDS_P1;SDS_P2;PMS_P1;PMS_P2;Temp;Humidity;BMP_temperature;BMP_pressure;BME280_temperature;BME280_humidity;BME280_pressure;Samples;Min_cycle;Max_cycle;Signal;HPM_P1;HPM_P2
2022/10/11 00:00:27;;;;;;;0.10;0.10;;;;;;;4.33;89.39;100521.09;4986277;28;20298;-63
2022/10/11 00:02:53;;;;;;;0.10;0.10;;;;;;;4.30;89.96;100527.75;4984488;28;20053;-62
2022/10/11 00:05:19;;;;;;;0.10;0.10;;;;;;;4.29;90.31;100511.72;4979027;28;20145;-62
2022/10/11 00:07:45;;;;;;;0.10;0.10;;;;;;;4.28;90.84;100519.03;4986753;28;20053;-63
2022/10/11 00:10:11;;;;;;;0.10;0.10;;;;;;;4.26;90.25;100515.72;4982855;28;20069;-63
2022/10/11 00:12:38;;;;;;;0.10;0.10;;;;;;;4.26;90.19;100507.59;4987406;28;20378;-61
2022/10/11 00:15:07;;;;;;;0.10;0.10;;;;;;;4.24;90.17;100515.09;4986622;28;20045;-63
2022/10/11 00:17:33;;;;;;;0.10;0.10;;;;;;;4.22;90.44;100520.72;4965391;28;20058;-63
2022/10/11 00:19:59;;;;;;;0.10;0.10;;;;;;;4.21;90.58;100515.50;4964751;28;20038;-63
2022/10/11 00:22:25;;;;;;;0.10;0.10;;;;;;;4.19;90.59;100506.78;4966106;28;20532;-62
2022/10/11 00:24:52;;;;;;;0.10;0.10;;;;;;;4.17;90.52;100506.16;4967802;28;20133;-65
2022/10/11 00:27:18;;;;;;;0.10;0.10;;;;;;;4.15;90.52;100500.97;4976482;28;20042;-65
2022/10/11 00:29:46;;;;;;;0.10;0.10;;;;;;;4.13;90.81;100499.53;4971382;28;20131;-65
2022/10/11 00:32:12;;;;;;;0.10;0.10;;;;;;;4.12;91.09;100504.09;4968168;28;20046;-65
2022/10/11 00:34:38;;;;;;;0.35;0.10;;;;;;;4.09;91.00;100497.25;4982278;28;20137;-64
2022/10/11 00:37:03;;;;;;;0.10;0.10;;;;;;;4.08;91.14;100492.88;4980073;28;20042;-63
2022/10/11 00:39:30;;;;;;;0.10;0.10;;;;;;;4.04;91.63;100490.81;4983677;28;20074;-65
2022/10/11 00:41:56;;;;;;;0.10;0.10;;;;;;;4.07;91.89;100496.63;4984623;28;20461;-63
2022/10/11 00:44:24;;;;;;;0.10;0.10;;;;;;;4.05;91.79;100496.00;4987201;28;20046;-64
2022/10/11 00:46:56;;;;;;;0.20;0.20;;;;;;;4.05;91.75;100493.28;4985812;28;20664;-63
2022/10/11 00:49:31;;;;;;;0.10;0.10;;;;;;;4.00;91.77;100498.53;4986191;28;20051;-63
2022/10/11 00:52:01;;;;;;;0.10;0.10;;;;;;;4.00;91.78;100492.31;4984594;28;20050;-63
2022/10/11 00:54:30;;;;;;;0.10;0.10;;;;;;;3.98;91.88;100495.22;4984393;28;20081;-65
2022/10/11 00:56:59;;;;;;;0.10;0.10;;;;;;;3.94;92.04;100494.81;4983166;28;20050;-63
2022/10/11 00:59:30;;;;;;;0.10;0.10;;;;;;;3.95;92.75;100492.94;4969943;28;20055;-65
2022/10/11 01:01:57;;;;;;;0.10;0.10;;;;;;;3.95;92.74;100488.34;4966147;28;20121;-64
2022/10/11 01:04:23;;;;;;;0.47;0.13;;;;;;;3.94;92.98;100486.69;4982288;28;20062;-65
2022/10/11 01:06:50;;;;;;;0.10;0.10;;;;;;;3.91;92.98;100487.13;4984846;28;20053;-65
2022/10/11 01:09:18;;;;;;;0.10;0.10;;;;;;;3.95;93.09;100484.81;4985308;28;20049;-64
2022/10/11 01:11:45;;;;;;;0.10;0.10;;;;;;;3.95;92.55;100482.94;4986306;28;20047;-65
2022/10/11 01:14:38;;;;;;;0.10;0.10;;;;;;;3.94;92.24;100488.56;4987664;28;20469;-65
2022/10/11 01:17:16;;;;;;;0.10;0.10;;;;;;;3.93;92.40;100478.78;4987365;28;20141;-65
2022/10/11 01:20:16;;;;;;;0.10;0.10;;;;;;;3.90;92.17;100485.44;4982433;28;20450;-65
2022/10/11 01:23:17;;;;;;;0.20;0.10;;;;;;;3.90;91.93;100484.59;4980214;28;20057;-63
2022/10/11 01:26:04;;;;;;;0.10;0.10;;;;;;;3.88;91.61;100489.41;4961548;28;20058;-65
2022/10/11 01:28:43;;;;;;;0.10;0.10;;;;;;;3.87;91.29;100487.75;4986574;28;20046;-65
2022/10/11 01:31:20;;;;;;;0.38;0.20;;;;;;;3.83;91.38;100485.47;4978627;28;20112;-65
2022/10/11 01:33:52;;;;;;;0.10;0.10;;;;;;;3.81;91.64;100481.31;4984577;28;20529;-65
2022/10/11 01:36:26;;;;;;;0.52;0.10;;;;;;;3.74;92.05;100477.81;4985185;28;20302;-65
2022/10/11 01:38:57;;;;;;;0.10;0.10;;;;;;;3.66;92.38;100484.28;4987042;28;20042;-65
2022/10/11 01:41:29;;;;;;;0.20;0.20;;;;;;;3.61;92.70;100473.28;4985445;28;20042;-63
2022/10/11 01:43:59;;;;;;;0.20;0.20;;;;;;;3.62;92.68;100478.47;4986648;28;20050;-64
2022/10/11 01:46:28;;;;;;;0.10;0.10;;;;;;;3.61;92.91;100481.38;4988455;28;20046;-64
2022/10/11 01:48:56;;;;;;;0.10;0.10;;;;;;;3.55;93.21;100475.75;4987669;28;20052;-64
2022/10/11 01:51:26;;;;;;;0.10;0.10;;;;;;;3.59;93.57;100478.03;4988529;28;20050;-65
2022/10/11 01:54:07;;;;;;;0.10;0.10;;;;;;;3.60;93.47;100477.03;4969728;28;20466;-65
2022/10/11 01:56:48;;;;;;;0.55;0.10;;;;;;;3.58;93.18;100477.22;4970196;28;20062;-65
2022/10/11 01:59:27;;;;;;;0.10;0.10;;;;;;;3.57;93.02;100483.69;4968511;28;20113;-65
2022/10/11 02:02:07;;;;;;;0.20;0.13;;;;;;;3.62;93.07;100483.88;4970714;28;20047;-65
2022/10/11 02:04:40;;;;;;;0.10;0.10;;;;;;;3.58;92.71;100481.78;4980652;28;20064;-67
2022/10/11 02:07:11;;;;;;;0.10;0.10;;;;;;;3.51;93.21;100481.81;4989823;28;20453;-65
2022/10/11 02:09:45;;;;;;;0.10;0.10;;;;;;;3.53;93.18;100482.44;4988951;28;20522;-64
2022/10/11 02:12:18;;;;;;;0.10;0.10;;;;;;;3.54;92.55;100481.41;4988556;28;20062;-65
2022/10/11 02:14:47;;;;;;;0.28;0.20;;;;;;;3.50;92.71;100483.69;4987178;28;20042;-66
2022/10/11 02:17:18;;;;;;;0.20;0.20;;;;;;;3.36;92.73;100471.25;4987955;28;20070;-64
2022/10/11 02:19:49;;;;;;;0.10;0.10;;;;;;;3.48;93.09;100483.06;4990667;28;20466;-65
2022/10/11 02:22:20;;;;;;;0.10;0.10;;;;;;;3.50;92.93;100485.56;4990323;28;20116;-63
2022/10/11 02:24:49;;;;;;;0.40;0.20;;;;;;;3.46;93.12;100484.31;4984802;28;20049;-65
2022/10/11 02:27:17;;;;;;;0.10;0.10;;;;;;;3.44;93.34;100494.50;4968409;28;20043;-65
2022/10/11 02:29:47;;;;;;;0.17;0.17;;;;;;;3.45;93.35;100498.88;4966945;28;20102;-65
2022/10/11 02:32:16;;;;;;;0.10;0.10;;;;;;;3.40;93.22;100500.34;4968483;28;20078;-64
2022/10/11 02:34:46;;;;;;;0.20;0.20;;;;;;;3.37;93.18;100497.22;4968781;28;20055;-65
2022/10/11 02:37:21;;;;;;;0.85;0.30;;;;;;;3.34;93.10;100489.53;4970441;28;20047;-64
2022/10/11 02:39:51;;;;;;;0.10;0.10;;;;;;;3.35;93.13;100494.72;4967957;28;20546;-65
2022/10/11 02:42:22;;;;;;;0.10;0.10;;;;;;;3.33;93.15;100493.28;4970203;28;20066;-65
2022/10/11 02:44:58;;;;;;;0.10;0.10;;;;;;;3.29;93.36;100494.75;4968792;28;20060;-65
2022/10/11 02:47:27;;;;;;;0.10;0.10;;;;;;;3.26;93.56;100499.50;4969706;28;20361;-65
2022/10/11 02:49:53;;;;;;;0.47;0.17;;;;;;;3.26;93.93;100496.81;4968337;28;20105;-65
2022/10/11 02:52:19;;;;;;;0.10;0.10;;;;;;;3.28;94.29;100504.72;4968480;28;20185;-66
2022/10/11 02:54:45;;;;;;;0.10;0.10;;;;;;;3.27;94.28;100497.66;4966662;28;20364;-65
2022/10/11 02:57:11;;;;;;;0.10;0.10;;;;;;;3.23;94.15;100493.72;4969633;28;20043;-63
2022/10/11 02:59:37;;;;;;;0.10;0.10;;;;;;;3.24;94.50;100503.50;4967376;28;20137;-65
2022/10/11 03:02:03;;;;;;;0.10;0.10;;;;;;;3.24;94.71;100496.19;4967925;28;20138;-66
2022/10/11 03:04:30;;;;;;;0.10;0.10;;;;;;;3.24;94.50;100496.19;4968553;28;20145;-65
2022/10/11 03:06:56;;;;;;;0.10;0.10;;;;;;;3.22;94.56;100500.16;4968544;28;20069;-65
2022/10/11 03:09:22;;;;;;;0.10;0.10;;;;;;;3.19;94.46;100495.16;4979876;28;20042;-65
2022/10/11 03:11:48;;;;;;;0.10;0.10;;;;;;;3.16;94.39;100501.81;4987746;28;20097;-65
2022/10/11 03:14:14;;;;;;;0.40;0.10;;;;;;;3.12;94.62;100497.84;4986966;28;20502;-65
2022/10/11 03:16:40;;;;;;;0.10;0.10;;;;;;;3.12;94.65;100495.16;4985420;28;20137;-64
2022/10/11 03:19:06;;;;;;;0.00;0.00;;;;;;;3.11;94.24;100490.78;4975631;28;20051;-63
2022/10/11 03:21:34;;;;;;;0.10;0.10;;;;;;;3.11;94.81;100490.78;4967330;28;20090;-64
2022/10/11 03:24:00;;;;;;;0.10;0.10;;;;;;;3.08;94.85;100485.81;4970338;28;20462;-64
2022/10/11 03:26:26;;;;;;;0.10;0.10;;;;;;;3.04;94.95;100488.09;4970334;28;20046;-63
2022/10/11 03:28:52;;;;;;;0.98;0.20;;;;;;;3.06;95.29;100486.03;4967399;28;20038;-65
2022/10/11 03:31:19;;;;;;;0.13;0.13;;;;;;;3.04;95.33;100479.16;4968299;28;20511;-64
2022/10/11 03:33:45;;;;;;;0.10;0.10;;;;;;;3.05;95.13;100480.81;4969525;28;20055;-65
2022/10/11 03:36:11;;;;;;;0.10;0.10;;;;;;;3.06;94.93;100485.19;4970242;28;20051;-64
2022/10/11 03:38:38;;;;;;;0.10;0.10;;;;;;;3.08;94.88;100485.81;4966977;28;20105;-64
2022/10/11 03:41:05;;;;;;;0.10;0.10;;;;;;;3.05;94.45;100483.53;4971001;28;20046;-65
2022/10/11 03:43:30;;;;;;;0.10;0.10;;;;;;;3.03;94.45;100481.03;4975314;28;20038;-63
2022/10/11 03:45:56;;;;;;;0.10;0.10;;;;;;;2.98;94.61;100473.56;4972175;28;20541;-64
2022/10/11 03:48:22;;;;;;;0.10;0.10;;;;;;;2.98;94.76;100481.66;4979864;28;20096;-63
2022/10/11 03:50:48;;;;;;;0.10;0.10;;;;;;;3.01;95.19;100474.19;4978721;28;20490;-65
2022/10/11 03:53:14;;;;;;;0.10;0.10;;;;;;;3.00;94.88;100473.34;4977187;28;20054;-62
2022/10/11 03:55:42;;;;;;;0.10;0.10;;;;;;;2.98;95.00;100470.00;4975635;28;20169;-62
2022/10/11 03:58:08;;;;;;;0.10;0.10;;;;;;;2.97;94.88;100476.47;4977917;28;20490;-62
2022/10/11 04:00:34;;;;;;;0.10;0.10;;;;;;;2.98;95.30;100465.47;4973644;28;20131;-65
2022/10/11 04:03:02;;;;;;;0.10;0.10;;;;;;;3.04;95.31;100473.75;4976461;28;20047;-65
2022/10/11 04:05:28;;;;;;;0.25;0.10;;;;;;;3.08;95.49;100467.75;4969536;28;20062;-65
2022/10/11 04:07:54;;;;;;;0.17;0.10;;;;;;;3.10;95.21;100475.63;4974697;28;20098;-63
2022/10/11 04:10:20;;;;;;;0.60;0.10;;;;;;;3.16;95.33;100474.81;4974828;28;20096;-64
2022/10/11 04:12:48;;;;;;;0.10;0.10;;;;;;;3.17;95.04;100476.47;4974325;28;20133;-63
2022/10/11 04:15:14;;;;;;;0.13;0.13;;;;;;;3.19;94.79;100474.38;4979583;28;20538;-62
2022/10/11 04:17:40;;;;;;;0.10;0.10;;;;;;;3.16;94.72;100472.09;4975144;28;20542;-63
2022/10/11 04:20:07;;;;;;;0.45;0.17;;;;;;;3.16;94.74;100476.66;4977831;28;20050;-63
2022/10/11 04:22:33;;;;;;;0.10;0.10;;;;;;;3.14;94.64;100476.03;4974969;28;20538;-63
2022/10/11 04:24:59;;;;;;;0.10;0.10;;;;;;;3.16;94.76;100468.56;4977878;28;20061;-64
2022/10/11 04:27:26;;;;;;;0.10;0.10;;;;;;;3.12;94.69;100463.56;4976671;28;20049;-63
2022/10/11 04:29:54;;;;;;;0.10;0.10;;;;;;;3.20;94.37;100473.34;4971991;28;20348;-63
2022/10/11 04:32:20;;;;;;;0.10;0.10;;;;;;;3.23;94.06;100474.78;4973425;28;20537;-63
2022/10/11 04:34:46;;;;;;;0.10;0.10;;;;;;;3.22;93.93;100473.94;4972536;28;20424;-65
2022/10/11 04:37:12;;;;;;;0.10;0.10;;;;;;;3.29;94.01;100473.13;4972803;28;20059;-65
2022/10/11 04:39:38;;;;;;;0.10;0.10;;;;;;;3.37;93.88;100479.16;4975205;28;20046;-65
2022/10/11 04:42:04;;;;;;;0.20;0.20;;;;;;;3.43;93.50;100466.63;4975491;28;20065;-65
2022/10/11 04:44:30;;;;;;;0.20;0.20;;;;;;;3.54;93.31;100468.69;4975163;28;20042;-65
2022/10/11 04:46:58;;;;;;;0.20;0.20;;;;;;;3.58;92.72;100466.41;4974291;28;20461;-65
2022/10/11 04:49:24;;;;;;;0.10;0.10;;;;;;;3.61;92.39;100462.47;4974058;28;20090;-65
2022/10/11 04:51:50;;;;;;;0.20;0.20;;;;;;;3.66;91.43;100465.34;4976682;28;20213;-65
2022/10/11 04:54:16;;;;;;;0.20;0.20;;;;;;;3.71;91.49;100465.53;4975029;28;20043;-65
2022/10/11 04:56:42;;;;;;;0.10;0.10;;;;;;;3.79;91.00;100469.88;4976286;28;20038;-64
2022/10/11 04:59:08;;;;;;;0.10;0.10;;;;;;;3.87;90.38;100466.94;4978359;28;20069;-65
2022/10/11 05:01:34;;;;;;;0.10;0.10;;;;;;;3.97;90.20;100470.00;4975340;28;20368;-64
2022/10/11 05:04:02;;;;;;;0.10;0.10;;;;;;;4.06;89.93;100467.91;4977952;28;20050;-63
2022/10/11 05:06:28;;;;;;;0.20;0.20;;;;;;;4.16;88.98;100461.19;4983807;28;20050;-63
2022/10/11 05:08:54;;;;;;;0.28;0.20;;;;;;;4.23;89.07;100459.31;4986402;28;20521;-65
2022/10/11 05:11:21;;;;;;;0.10;0.10;;;;;;;4.32;88.79;100468.81;4986496;28;20105;-65
2022/10/11 05:13:47;;;;;;;0.10;0.10;;;;;;;4.43;88.58;100471.88;4980264;28;20450;-63
2022/10/11 05:16:13;;;;;;;0.10;0.10;;;;;;;4.44;87.96;100468.94;4975882;28;20046;-62
2022/10/11 05:18:40;;;;;;;0.52;0.20;;;;;;;4.51;87.78;100474.31;4979478;28;20054;-62
2022/10/11 05:21:15;;;;;;;0.22;0.20;;;;;;;4.62;87.65;100473.63;4985234;28;20042;-63
2022/10/11 05:23:41;;;;;;;0.10;0.10;;;;;;;4.71;86.92;100468.78;4979967;28;20653;-62
2022/10/11 05:26:07;;;;;;;0.10;0.10;;;;;;;4.77;85.87;100467.91;4967112;28;20129;-63
2022/10/11 05:28:33;;;;;;;0.20;0.20;;;;;;;4.84;84.88;100467.88;4966724;28;20043;-62
2022/10/11 05:30:59;;;;;;;0.60;0.22;;;;;;;4.88;84.65;100465.53;4963603;28;20051;-63
2022/10/11 05:33:26;;;;;;;0.10;0.10;;;;;;;4.92;84.73;100462.16;4964769;28;20057;-63
2022/10/11 05:35:51;;;;;;;0.10;0.10;;;;;;;5.03;84.44;100467.91;4974456;28;20373;-64
2022/10/11 05:38:19;;;;;;;0.10;0.10;;;;;;;5.09;83.72;100470.56;4984278;28;20524;-63
2022/10/11 05:40:45;;;;;;;0.20;0.20;;;;;;;5.00;82.88;100436.66;4978308;28;20310;-65
2022/10/11 05:43:11;;;;;;;0.10;0.10;;;;;;;5.29;83.02;100463.28;4978480;28;20445;-65
2022/10/11 05:45:38;;;;;;;0.32;0.20;;;;;;;5.35;82.10;100462.41;4987891;28;20046;-65
2022/10/11 05:48:05;;;;;;;0.20;0.20;;;;;;;5.38;81.81;100456.53;4982075;28;20579;-65
2022/10/11 05:50:31;;;;;;;0.10;0.10;;;;;;;5.49;81.37;100463.09;4977674;28;20051;-65
2022/10/11 05:52:57;;;;;;;0.13;0.13;;;;;;;5.60;81.03;100456.09;4976013;28;20302;-69
2022/10/11 05:55:24;;;;;;;1.10;0.30;;;;;;;5.68;81.39;100461.22;4967655;28;20053;-65
2022/10/11 05:57:52;;;;;;;0.10;0.10;;;;;;;5.74;80.04;100457.59;4974588;28;20050;-65
2022/10/11 06:00:18;;;;;;;0.10;0.10;;;;;;;5.78;79.16;100447.97;4982011;28;20410;-65
2022/10/11 06:02:44;;;;;;;0.20;0.20;;;;;;;5.89;78.18;100446.38;4975912;28;20513;-63
2022/10/11 06:05:10;;;;;;;0.10;0.10;;;;;;;5.96;77.06;100451.72;4967260;28;20221;-63
2022/10/11 06:07:36;;;;;;;0.30;0.30;;;;;;;6.04;76.54;100454.13;4962947;28;20043;-63
2022/10/11 06:10:03;;;;;;;0.10;0.10;;;;;;;6.13;76.32;100454.66;4963916;28;20105;-64
2022/10/11 06:12:30;;;;;;;0.10;0.10;;;;;;;6.18;75.55;100438.53;4965317;28;20187;-64
2022/10/11 06:14:56;;;;;;;;;;;;;;;6.29;75.79;100436.06;4979798;28;20081;-62
2022/10/11 06:17:22;;;;;;;0.40;0.10;;;;;;;6.33;75.73;100435.38;4984681;28;19961;-63
2022/10/11 06:19:49;;;;;;;0.32;0.20;;;;;;;6.38;74.83;100437.41;4986100;28;20109;-63
2022/10/11 06:22:15;;;;;;;0.32;0.20;;;;;;;6.42;74.58;100441.31;4982160;28;20128;-62
2022/10/11 06:24:41;;;;;;;0.10;0.10;;;;;;;6.49;74.63;100443.94;4983522;28;20148;-63
2022/10/11 06:27:10;;;;;;;0.47;0.20;;;;;;;6.56;74.07;100438.41;4987505;28;20143;-63
2022/10/11 06:29:38;;;;;;;0.10;0.10;;;;;;;6.61;73.41;100436.66;4986263;28;20529;-65
2022/10/11 06:32:04;;;;;;;0.20;0.20;;;;;;;6.66;73.00;100444.91;4986216;28;20213;-64
2022/10/11 06:34:30;;;;;;;0.10;0.10;;;;;;;6.70;71.76;100436.28;4988517;28;20116;-64
2022/10/11 06:36:56;;;;;;;0.20;0.20;;;;;;;6.75;71.18;100441.88;4981002;28;20509;-64
2022/10/11 06:39:22;;;;;;;0.20;0.20;;;;;;;6.65;70.78;100415.28;4989449;28;20146;-65
2022/10/11 06:41:48;;;;;;;0.10;0.10;;;;;;;6.84;70.76;100434.19;4986297;28;20039;-65
2022/10/11 06:44:15;;;;;;;0.10;0.10;;;;;;;6.90;70.37;100442.25;4986942;28;20385;-66
2022/10/11 06:46:42;;;;;;;;;;;;;;;6.94;69.81;100435.28;4620977;28;10000394;-65
2022/10/11 06:49:09;;;;;;;0.10;0.10;;;;;;;6.98;69.28;100432.09;4976792;28;19926;-62
2022/10/11 06:51:35;;;;;;;0.10;0.10;;;;;;;7.02;69.10;100439.53;4971731;28;20071;-63
2022/10/11 06:54:01;;;;;;;0.10;0.10;;;;;;;7.07;69.10;100436.94;4979386;28;20461;-62
2022/10/11 06:56:30;;;;;;;0.10;0.10;;;;;;;7.12;68.41;100425.34;4975247;28;20138;-63
2022/10/11 06:58:57;;;;;;;0.10;0.10;;;;;;;7.22;68.10;100431.03;4980547;28;20124;-63
2022/10/11 07:01:23;;;;;;;;;;;;;;;7.43;67.80;100427.94;4969394;28;20481;-60
2022/10/11 07:03:52;;;;;;;0.20;0.20;;;;;;;7.80;66.12;100422.19;4970171;28;19926;-63
2022/10/11 07:06:21;;;;;;;0.10;0.10;;;;;;;8.32;64.47;100424.00;4977352;28;20062;-65
2022/10/11 07:08:48;;;;;;;0.20;0.20;;;;;;;8.88;62.17;100427.97;4970902;28;20078;-65
2022/10/11 07:11:16;;;;;;;0.20;0.20;;;;;;;9.24;60.39;100427.72;4967192;28;20050;-63
2022/10/11 07:13:42;;;;;;;0.20;0.20;;;;;;;9.47;58.96;100421.22;4965448;28;20038;-63
2022/10/11 07:16:11;;;;;;;0.10;0.10;;;;;;;9.77;57.95;100422.69;4968990;28;20526;-63
2022/10/11 07:18:37;;;;;;;0.20;0.20;;;;;;;10.18;56.69;100425.88;4961519;28;20051;-63
2022/10/11 07:21:06;;;;;;;0.30;0.30;;;;;;;10.62;55.46;100427.72;4971065;28;20144;-64
2022/10/11 07:23:32;;;;;;;0.10;0.10;;;;;;;11.03;54.51;100424.47;4981257;28;20046;-64
2022/10/11 07:25:58;;;;;;;0.20;0.20;;;;;;;11.47;52.45;100426.13;4979672;28;20133;-64
2022/10/11 07:28:24;;;;;;;0.40;0.20;;;;;;;11.81;51.47;100427.66;4979219;28;20039;-65
2022/10/11 07:30:51;;;;;;;0.20;0.20;;;;;;;12.11;50.23;100423.41;4983157;28;20600;-64
2022/10/11 07:33:17;;;;;;;0.52;0.25;;;;;;;12.30;48.66;100426.44;4978439;28;20054;-65
2022/10/11 07:35:43;;;;;;;0.20;0.20;;;;;;;12.54;47.74;100420.47;4967109;28;20138;-65
2022/10/11 07:38:11;;;;;;;0.20;0.20;;;;;;;12.83;47.14;100413.59;4972943;28;20058;-64
2022/10/11 07:40:41;;;;;;;0.20;0.20;;;;;;;13.13;45.69;100409.19;4970977;28;20069;-66
2022/10/11 07:43:07;;;;;;;0.40;0.20;;;;;;;13.45;45.34;100413.53;4974796;28;20391;-65
2022/10/11 07:45:36;;;;;;;0.30;0.30;;;;;;;13.81;44.60;100420.81;4971369;28;20050;-65
2022/10/11 07:48:02;;;;;;;0.40;0.22;;;;;;;14.02;43.97;100408.63;4969951;28;20129;-68
2022/10/11 07:50:28;;;;;;;0.20;0.20;;;;;;;14.22;43.31;100406.88;4975730;28;20035;-64
2022/10/11 07:52:54;;;;;;;0.20;0.20;;;;;;;14.11;43.60;100408.84;4977413;28;20069;-64
2022/10/11 07:55:22;;;;;;;0.20;0.20;;;;;;;14.42;42.68;100416.09;4977764;28;20039;-64
2022/10/11 07:57:48;;;;;;;0.20;0.20;;;;;;;14.61;41.96;100408.78;4974095;28;20050;-64
2022/10/11 08:00:15;;;;;;;0.20;0.20;;;;;;;14.80;41.38;100401.81;4969870;28;20055;-65
2022/10/11 08:02:41;;;;;;;0.40;0.30;;;;;;;15.06;40.62;100396.88;4979696;28;20046;-64
2022/10/11 08:05:08;;;;;;;0.20;0.20;;;;;;;15.58;39.57;100396.31;4972793;28;20836;-66
2022/10/11 08:07:35;;;;;;;1.17;0.30;;;;;;;15.95;38.95;100397.53;4973557;28;20047;-66
2022/10/11 08:10:01;;;;;;;0.30;0.30;;;;;;;16.48;38.57;100390.16;4977268;28;20509;-64
2022/10/11 08:12:29;;;;;;;0.30;0.30;;;;;;;16.53;37.82;100392.00;4977318;28;20057;-64
2022/10/11 08:14:58;;;;;;;0.38;0.38;;;;;;;16.69;37.28;100389.81;4969125;28;20042;-66
2022/10/11 08:17:25;;;;;;;0.30;0.30;;;;;;;17.08;36.45;100396.91;4984988;28;20042;-65
2022/10/11 08:19:51;;;;;;;0.30;0.30;;;;;;;17.24;35.60;100391.88;4970246;28;20039;-64
2022/10/11 08:22:17;;;;;;;0.30;0.30;;;;;;;17.28;35.22;100389.34;4982556;28;20506;-64
2022/10/11 08:24:43;;;;;;;0.30;0.30;;;;;;;17.43;35.19;100399.28;4962963;28;20105;-64
2022/10/11 08:27:10;;;;;;;0.30;0.30;;;;;;;17.49;34.51;100387.00;4960039;28;20045;-64
2022/10/11 08:29:37;;;;;;;0.40;0.40;;;;;;;17.64;34.16;100385.88;4974963;28;20050;-64
2022/10/11 08:32:04;;;;;;;0.40;0.40;;;;;;;17.79;33.64;100381.97;4973893;28;20546;-66
2022/10/11 08:34:30;;;;;;;0.40;0.40;;;;;;;17.68;33.20;100381.38;4976083;28;20100;-66
2022/10/11 08:36:56;;;;;;;0.50;0.50;;;;;;;17.70;33.18;100386.56;4976297;28;20047;-65
2022/10/11 08:39:22;;;;;;;0.40;0.40;;;;;;;17.92;32.30;100379.50;4992940;28;20050;-66
2022/10/11 08:41:53;;;;;;;0.40;0.40;;;;;;;18.40;32.04;100373.41;4986081;28;20054;-66
2022/10/11 08:44:35;;;;;;;0.50;0.50;;;;;;;18.71;31.63;100371.81;4966679;28;20054;-64
2022/10/11 08:47:08;;;;;;;0.77;0.57;;;;;;;19.23;31.38;100376.06;4976196;28;20105;-65
2022/10/11 08:49:35;;;;;;;0.50;0.50;;;;;;;19.61;30.90;100369.19;4961487;28;20510;-64
2022/10/11 08:52:05;;;;;;;0.60;0.60;;;;;;;19.77;30.40;100367.59;4965946;28;20057;-65
2022/10/11 08:54:41;;;;;;;0.50;0.50;;;;;;;19.84;29.56;100362.38;4977746;28;20105;-64
2022/10/11 08:57:13;;;;;;;0.60;0.60;;;;;;;20.08;28.94;100351.97;4964505;28;20545;-64
2022/10/11 08:59:47;;;;;;;0.60;0.60;;;;;;;19.90;28.60;100353.88;4978113;28;20055;-64
2022/10/11 09:02:24;;;;;;;0.60;0.60;;;;;;;20.03;29.25;100350.16;4975063;28;20051;-64
2022/10/11 09:04:52;;;;;;;0.60;0.60;;;;;;;20.09;28.94;100351.66;4962522;28;20058;-64
2022/10/11 09:07:32;;;;;;;0.65;0.65;;;;;;;19.89;29.02;100346.69;4979249;28;20521;-64
2022/10/11 09:10:15;;;;;;;0.70;0.70;;;;;;;20.12;28.65;100351.00;4975028;28;20046;-67
2022/10/11 09:12:55;;;;;;;0.60;0.60;;;;;;;20.36;27.98;100332.22;4971870;28;20554;-67
2022/10/11 09:15:34;;;;;;;0.70;0.70;;;;;;;20.40;27.42;100338.72;4981542;28;20058;-64
2022/10/11 09:18:33;;;;;;;0.70;0.70;;;;;;;20.60;26.53;100333.63;4986740;28;20534;-66
2022/10/11 09:21:11;;;;;;;0.77;0.77;;;;;;;20.72;26.52;100338.53;4978129;28;20050;-67
2022/10/11 09:23:47;;;;;;;0.88;0.88;;;;;;;21.27;25.78;100331.31;4970878;28;20611;-65
2022/10/11 09:26:21;;;;;;;0.80;0.80;;;;;;;21.84;25.23;100320.84;4972049;28;20164;-69
2022/10/11 09:28:55;;;;;;;0.80;0.80;;;;;;;22.16;24.86;100321.22;4984145;28;20042;-68
2022/10/11 09:31:22;;;;;;;0.90;0.90;;;;;;;22.87;24.43;100313.03;4985346;28;20070;-67
2022/10/11 09:33:50;;;;;;;;;;;;;;;23.11;23.95;100318.97;4974204;28;20050;-67
2022/10/11 09:36:24;;;;;;;0.98;0.98;;;;;;;22.97;23.45;100305.34;4976674;28;19997;-67
2022/10/11 09:38:58;;;;;;;0.90;0.90;;;;;;;22.66;23.41;100308.31;4974656;28;20042;-66
2022/10/11 09:41:32;;;;;;;1.02;1.02;;;;;;;22.59;23.01;100307.25;4972476;28;20130;-65
2022/10/11 09:43:58;;;;;;;1.00;1.00;;;;;;;22.60;22.97;100297.72;4979765;28;20426;-65
2022/10/11 09:46:35;;;;;;;1.08;1.08;;;;;;;22.80;23.05;100296.88;4975282;28;20050;-65
2022/10/11 09:49:08;;;;;;;1.00;1.00;;;;;;;23.15;22.31;100297.59;4971714;28;20042;-65
2022/10/11 09:51:34;;;;;;;1.00;1.00;;;;;;;23.32;22.31;100280.63;4976447;28;20301;-65
2022/10/11 09:54:03;;;;;;;1.00;1.00;;;;;;;23.29;22.22;100286.91;4978412;28;20403;-65
2022/10/11 09:56:31;;;;;;;1.00;1.00;;;;;;;23.35;21.94;100293.06;4625684;28;10000540;-65
2022/10/11 09:59:09;;;;;;;1.00;1.00;;;;;;;23.62;22.04;100291.50;4971536;28;20419;-66
2022/10/11 10:01:36;;;;;;;1.10;1.10;;;;;;;24.45;20.60;100283.91;4964789;28;20047;-65
2022/10/11 10:04:11;;;;;;;1.10;1.10;;;;;;;24.50;19.57;100287.22;4972970;28;20046;-67
2022/10/11 10:06:38;;;;;;;1.10;1.10;;;;;;;24.22;20.25;100281.69;4979693;28;20481;-67
2022/10/11 10:09:25;;;;;;;1.10;1.10;;;;;;;24.15;19.67;100278.69;4968464;28;20478;-68
2022/10/11 10:11:52;;;;;;;1.10;1.10;;;;;;;23.49;19.88;100278.75;4966984;28;20051;-67
2022/10/11 10:14:23;;;;;;;1.10;1.10;;;;;;;23.06;20.90;100273.41;4978002;28;20133;-67
2022/10/11 10:16:59;;;;;;;1.20;1.20;;;;;;;23.26;21.10;100259.72;4973549;28;20061;-67
2022/10/11 10:19:27;;;;;;;1.30;1.20;;;;;;;23.89;20.09;100271.56;4985477;28;20108;-67
2022/10/11 10:21:55;;;;;;;1.20;1.20;;;;;;;24.42;19.51;100268.66;4984652;28;20046;-65
2022/10/11 10:24:33;;;;;;;1.20;1.20;;;;;;;24.15;19.04;100259.16;4969194;28;20534;-64
2022/10/11 10:27:17;;;;;;;1.30;1.20;;;;;;;24.22;19.67;100267.72;4983207;28;20050;-66
2022/10/11 10:29:58;;;;;;;1.20;1.20;;;;;;;24.14;20.01;100263.91;4969972;28;20049;-67
2022/10/11 10:32:29;;;;;;;1.30;1.20;;;;;;;24.61;19.55;100261.56;4985413;28;20425;-67
2022/10/11 10:35:05;;;;;;;1.30;1.20;;;;;;;25.22;18.92;100245.50;4975347;28;20051;-65
2022/10/11 10:37:35;;;;;;;1.10;1.10;;;;;;;25.21;18.77;100238.28;4967574;28;20164;-67
2022/10/11 10:40:07;;;;;;;1.20;1.20;;;;;;;25.27;19.04;100238.81;4969527;28;20074;-66
2022/10/11 10:42:33;;;;;;;1.20;1.20;;;;;;;25.10;19.32;100235.22;4976891;28;20038;-67
2022/10/11 10:45:00;;;;;;;1.10;1.10;;;;;;;25.01;19.31;100243.00;4971838;28;20055;-68
2022/10/11 10:47:48;;;;;;;1.20;1.20;;;;;;;24.83;18.97;100237.78;4968102;28;20141;-67
2022/10/11 10:50:22;;;;;;;1.30;1.20;;;;;;;24.42;19.26;100240.72;4960613;28;20062;-67
2022/10/11 10:52:59;;;;;;;1.30;1.20;;;;;;;24.35;19.09;100226.53;4974336;28;20434;-67
2022/10/11 10:55:32;;;;;;;1.10;1.10;;;;;;;24.38;18.91;100230.63;4971312;28;20043;-67
2022/10/11 10:58:06;;;;;;;1.25;1.20;;;;;;;24.70;18.81;100230.63;4965846;28;20081;-68
2022/10/11 11:00:41;;;;;;;1.30;1.20;;;;;;;25.44;17.77;100224.41;4955099;28;20182;-67
2022/10/11 11:03:14;;;;;;;1.40;1.30;;;;;;;25.94;17.32;100226.66;4968326;28;20054;-68
2022/10/11 11:05:47;;;;;;;1.40;1.30;;;;;;;26.29;16.86;100222.94;4982360;28;20594;-67
2022/10/11 11:08:22;;;;;;;1.40;1.30;;;;;;;26.64;16.57;100207.13;4957501;28;20082;-65
2022/10/11 11:10:55;;;;;;;1.40;1.30;;;;;;;26.41;16.08;100218.34;4977264;28;20133;-65
2022/10/11 11:13:32;;;;;;;1.30;1.20;;;;;;;25.90;16.57;100212.56;4973353;28;20059;-65
2022/10/11 11:16:12;;;;;;;1.30;1.20;;;;;;;25.97;16.20;100216.69;4981865;28;20513;-68
2022/10/11 11:18:44;;;;;;;1.30;1.20;;;;;;;25.97;16.23;100213.91;4984623;28;20058;-68
2022/10/11 11:21:25;;;;;;;1.30;1.20;;;;;;;25.76;15.79;100204.69;4978840;28;20185;-68
2022/10/11 11:23:59;;;;;;;1.17;1.10;;;;;;;25.48;16.18;100202.91;4971739;28;20232;-67
2022/10/11 11:26:34;;;;;;;1.10;1.10;;;;;;;25.10;16.42;100192.44;4965898;28;20485;-67
2022/10/11 11:29:11;;;;;;;1.10;1.10;;;;;;;24.35;17.16;100193.84;4976906;28;20097;-65
2022/10/11 11:31:55;;;;;;;1.05;1.05;;;;;;;23.87;17.45;100193.72;4624043;28;10000224;-67
2022/10/11 11:34:25;;;;;;;1.10;1.10;;;;;;;23.45;17.53;100186.56;4969316;28;20560;-67
2022/10/11 11:36:56;;;;;;;1.10;1.10;;;;;;;22.71;18.88;100181.88;4971159;28;20054;-67
2022/10/11 11:39:28;;;;;;;1.00;1.00;;;;;;;22.78;19.16;100184.88;4970858;28;20138;-67
2022/10/11 11:41:59;;;;;;;1.00;1.00;;;;;;;22.81;19.33;100183.38;4960043;28;20605;-67